createdAt,value
2023-02-24T00:02:20.192Z,1.00
2023-02-24T00:07:24.748Z,0.93
2023-02-24T00:12:27.790Z,1.13
2023-02-24T00:17:30.816Z,1.03
2023-02-24T00:22:35.283Z,0.80
2023-02-24T00:27:38.384Z,1.63
2023-02-24T00:32:41.546Z,1.73
2023-02-24T00:37:51.261Z,1.70
2023-02-24T00:42:55.195Z,1.03
2023-02-24T00:47:58.154Z,2.57
2023-02-24T00:53:02.774Z,1.17
2023-02-24T00:58:08.667Z,1.30
2023-02-24T01:03:11.589Z,0.90
2023-02-24T01:08:21.704Z,1.10
2023-02-24T01:13:24.702Z,1.17
2023-02-24T01:18:27.493Z,0.63
2023-02-24T01:23:32.463Z,1.37
2023-02-24T01:28:35.405Z,0.77
2023-02-24T01:33:39.378Z,1.20
2023-02-24T01:38:44.164Z,1.13
2023-02-24T01:43:59.235Z,0.93
2023-02-24T01:49:08.411Z,1.33
2023-02-24T01:54:15.351Z,1.70
2023-02-24T01:59:18.772Z,0.60
2023-02-24T02:04:26.944Z,0.67
2023-02-24T02:09:32.654Z,0.80
2023-02-24T02:14:36.770Z,0.50
2023-02-24T02:20:16.075Z,0.90
2023-02-24T02:25:30.855Z,0.70
2023-02-24T02:31:06.963Z,1.03
2023-02-24T02:36:16.493Z,0.90
2023-02-24T02:41:24.679Z,1.03
2023-02-24T02:46:35.098Z,0.60
2023-02-24T02:51:42.123Z,0.80
2023-02-24T02:56:48.139Z,0.97
2023-02-24T03:01:55.486Z,0.83
2023-02-24T03:07:02.652Z,0.70
2023-02-24T03:12:08.674Z,0.80
2023-02-24T03:17:14.966Z,0.70
2023-02-24T03:22:24.923Z,0.90
2023-02-24T03:27:30.712Z,0.70
2023-02-24T03:32:44.120Z,0.73
2023-02-24T03:37:50.044Z,1.00
2023-02-24T03:42:59.218Z,1.03
2023-02-24T03:48:05.832Z,0.53
2023-02-24T03:53:31.752Z,0.50
2023-02-24T03:58:44.307Z,1.70
2023-02-24T04:03:53.374Z,1.17
2023-02-24T04:09:10.478Z,1.20
2023-02-24T04:14:25.455Z,0.80
2023-02-24T04:19:30.637Z,1.10
2023-02-24T04:24:36.514Z,2.33
2023-02-24T04:29:47.141Z,1.57
2023-02-24T04:34:52.533Z,1.70
2023-02-24T04:39:57.470Z,1.93
2023-02-24T04:45:10.005Z,3.00
2023-02-24T04:50:22.726Z,2.03
2023-02-24T04:55:29.559Z,2.63
2023-02-24T05:00:35.813Z,1.90
2023-02-24T05:05:38.761Z,2.47
2023-02-24T05:10:44.814Z,1.63
2023-02-24T05:15:49.799Z,1.57
2023-02-24T05:21:12.852Z,2.47
2023-02-24T05:26:19.474Z,2.27
2023-02-24T05:31:26.650Z,2.80
2023-02-24T05:36:31.846Z,1.87
2023-02-24T05:41:38.639Z,1.40
2023-02-24T05:46:44.626Z,1.83
2023-02-24T05:51:54.584Z,2.23
2023-02-24T05:57:00.751Z,1.63
2023-02-24T06:02:07.551Z,1.83
2023-02-24T06:07:14.628Z,1.67
2023-02-24T06:12:19.296Z,2.87
2023-02-24T06:17:23.096Z,2.03
2023-02-24T06:22:27.162Z,1.60
2023-02-24T06:27:33.164Z,2.13
2023-02-24T06:32:36.423Z,1.93
2023-02-24T06:37:39.601Z,1.97
2023-02-24T06:42:47.348Z,3.20
2023-02-24T06:47:50.243Z,2.00
2023-02-24T06:52:58.458Z,2.40
2023-02-24T06:58:04.660Z,1.67
2023-02-24T07:03:15.756Z,2.70
2023-02-24T07:08:21.065Z,2.07
2023-02-24T07:13:26.151Z,1.77
2023-02-24T07:18:30.917Z,1.77
2023-02-24T07:23:33.858Z,2.00
2023-02-24T07:28:39.989Z,1.90
2023-02-24T07:33:45.213Z,2.40
2023-02-24T07:38:48.152Z,2.63
2023-02-24T07:43:53.497Z,2.37
2023-02-24T07:48:59.173Z,2.47
2023-02-24T07:54:03.230Z,2.10
2023-02-24T07:59:11.240Z,2.50
2023-02-24T08:04:16.005Z,3.93
2023-02-24T08:09:20.811Z,2.50
2023-02-24T08:14:27.340Z,2.33
2023-02-24T08:19:33.361Z,3.30
2023-02-24T08:24:36.330Z,1.93
2023-02-24T08:29:57.863Z,2.57
2023-02-24T08:35:03.216Z,4.13
2023-02-24T08:40:17.959Z,4.83
2023-02-24T08:45:22.162Z,4.47
2023-02-24T08:50:30.025Z,4.23
2023-02-24T08:55:33.013Z,4.57
2023-02-24T09:00:49.222Z,5.10
2023-02-24T09:05:54.757Z,5.13
2023-02-24T09:10:59.392Z,5.23
2023-02-24T09:16:05.278Z,6.43
2023-02-24T09:21:32.385Z,6.23
2023-02-24T09:26:43.247Z,5.80
2023-02-24T09:31:55.408Z,6.70
2023-02-24T09:37:03.220Z,7.23
2023-02-24T09:42:30.239Z,6.80
2023-02-24T09:47:56.900Z,5.73
2023-02-24T09:53:13.895Z,5.17
2023-02-24T09:58:34.808Z,6.50
2023-02-24T10:03:48.268Z,6.70
2023-02-24T10:08:56.173Z,5.03
2023-02-24T10:14:03.432Z,4.43
2023-02-24T10:19:17.622Z,6.37
2023-02-24T10:24:29.408Z,5.10
2023-02-24T10:29:55.594Z,4.30
2023-02-24T10:34:59.880Z,3.83
2023-02-24T10:40:09.928Z,3.00
2023-02-24T10:45:18.182Z,3.97
2023-02-24T10:50:25.397Z,2.93
2023-02-24T10:55:52.298Z,4.83
2023-02-24T11:01:12.639Z,3.43
2023-02-24T11:06:53.803Z,4.63
2023-02-24T11:12:15.924Z,3.63
2023-02-24T11:17:26.907Z,4.23
2023-02-24T11:22:34.291Z,5.33
2023-02-24T11:27:37.418Z,4.80
2023-02-24T11:32:54.826Z,4.07
2023-02-24T11:38:03.462Z,3.17
2023-02-24T11:43:08.409Z,5.43
2023-02-24T11:48:16.044Z,3.67
2023-02-24T11:53:29.726Z,3.60
2023-02-24T11:58:45.315Z,4.27
2023-02-24T12:03:53.773Z,5.97
2023-02-24T12:09:02.069Z,3.23
2023-02-24T12:14:14.846Z,3.53
2023-02-24T12:19:20.203Z,3.50
2023-02-24T12:24:24.635Z,3.30
2023-02-24T12:29:54.575Z,4.70
2023-02-24T12:35:07.411Z,3.07
2023-02-24T12:40:24.904Z,2.23
2023-02-24T12:45:34.770Z,1.37
2023-02-24T12:50:46.616Z,1.40
2023-02-24T12:56:02.057Z,1.67
2023-02-24T13:01:13.222Z,3.73
2023-02-24T13:06:20.233Z,3.10
2023-02-24T13:11:31.308Z,4.60
2023-02-24T13:16:35.979Z,4.00
2023-02-24T13:21:39.984Z,2.77
2023-02-24T13:26:44.603Z,2.97
2023-02-24T13:31:50.136Z,2.50
2023-02-24T13:36:53.215Z,1.43
2023-02-24T13:42:22.054Z,1.50
2023-02-24T13:47:47.857Z,1.30
2023-02-24T13:53:15.687Z,1.77
2023-02-24T13:58:34.390Z,1.33
2023-02-24T14:03:39.445Z,1.23
2023-02-24T14:08:44.882Z,1.40
2023-02-24T14:13:50.842Z,1.70
2023-02-24T14:18:55.118Z,1.63
2023-02-24T14:23:58.831Z,0.97
2023-02-24T14:29:03.416Z,1.80
2023-02-24T14:34:09.038Z,1.43
2023-02-24T14:39:16.323Z,0.70
2023-02-24T14:44:23.096Z,1.20
2023-02-24T14:49:28.323Z,2.00
2023-02-24T14:54:40.439Z,1.73
2023-02-24T14:59:47.093Z,1.63
2023-02-24T15:04:49.913Z,1.50
2023-02-24T15:09:53.271Z,2.00
2023-02-24T15:15:01.157Z,2.03
2023-02-24T15:20:05.132Z,1.47
2023-02-24T15:25:24.003Z,2.17
2023-02-24T15:30:34.525Z,1.50
2023-02-24T15:35:40.575Z,1.57
2023-02-24T15:40:52.509Z,2.67
2023-02-24T15:45:56.708Z,1.57
2023-02-24T15:51:03.522Z,2.30
2023-02-24T15:56:06.556Z,1.90
2023-02-24T16:01:12.607Z,1.67
2023-02-24T16:06:19.714Z,3.27
2023-02-24T16:11:25.092Z,2.90
2023-02-24T16:16:29.507Z,2.13
2023-02-24T16:21:32.442Z,2.93
2023-02-24T16:26:37.072Z,2.80
2023-02-24T16:31:41.596Z,2.40
2023-02-24T16:36:45.156Z,2.63
2023-02-24T16:41:48.030Z,3.07
2023-02-24T16:46:52.869Z,3.20
2023-02-24T16:51:57.422Z,1.77
2023-02-24T16:57:00.278Z,1.83
2023-02-24T17:02:05.005Z,2.10
2023-02-24T17:07:11.344Z,2.97
2023-02-24T17:12:14.945Z,2.60
2023-02-24T17:17:19.455Z,2.80
2023-02-24T17:22:23.219Z,2.90
2023-02-24T17:27:28.520Z,2.37
2023-02-24T17:32:33.208Z,3.33
2023-02-24T17:37:36.126Z,3.97
2023-02-24T17:42:39.469Z,2.77
2023-02-24T17:47:43.934Z,3.60
2023-02-24T17:52:46.849Z,3.33
2023-02-24T17:57:49.641Z,3.00
2023-02-24T18:02:55.291Z,4.53
2023-02-24T18:07:58.713Z,2.93
2023-02-24T18:13:01.458Z,3.50
2023-02-24T18:18:05.745Z,3.27
2023-02-24T18:23:08.495Z,5.13
2023-02-24T18:28:11.476Z,4.17
2023-02-24T18:33:15.694Z,3.47
2023-02-24T18:38:18.795Z,4.10
2023-02-24T18:43:21.588Z,5.10
2023-02-24T18:48:25.859Z,2.20
2023-02-24T18:53:31.619Z,2.97
2023-02-24T18:58:34.949Z,2.63
2023-02-24T19:03:39.113Z,3.20
2023-02-24T19:08:42.834Z,4.23
2023-02-24T19:13:47.905Z,2.73
2023-02-24T19:18:52.760Z,1.80
2023-02-24T19:23:55.676Z,2.80
2023-02-24T19:28:59.223Z,1.47
2023-02-24T19:34:05.038Z,1.23
2023-02-24T19:39:10.842Z,1.63
2023-02-24T19:44:13.767Z,1.80
2023-02-24T19:49:17.857Z,1.73
2023-02-24T19:54:22.465Z,2.00
2023-02-24T19:59:25.405Z,2.60
2023-02-24T20:04:29.884Z,3.40
2023-02-24T20:09:32.808Z,1.90
2023-02-24T20:14:35.629Z,2.33
2023-02-24T20:19:39.826Z,3.00
2023-02-24T20:24:42.629Z,1.20
2023-02-24T20:29:45.589Z,2.53
2023-02-24T20:34:49.931Z,1.03
2023-02-24T20:39:52.977Z,1.47
2023-02-24T20:44:55.709Z,1.17
2023-02-24T20:49:59.908Z,1.37
2023-02-24T20:55:02.791Z,2.17
2023-02-24T21:00:08.017Z,1.63
2023-02-24T21:05:19.127Z,1.50
2023-02-24T21:10:25.054Z,3.67
2023-02-24T21:15:28.021Z,2.03
2023-02-24T21:20:32.241Z,1.40
2023-02-24T21:25:35.025Z,3.93
2023-02-24T21:30:37.934Z,2.60
2023-02-24T21:35:42.163Z,2.17
2023-02-24T21:40:45.397Z,3.50
2023-02-24T21:45:48.230Z,2.53
2023-02-24T21:50:59.958Z,3.53
2023-02-24T21:56:04.315Z,3.20
2023-02-24T22:01:11.942Z,2.20
2023-02-24T22:06:17.392Z,2.83
2023-02-24T22:11:20.224Z,3.20
2023-02-24T22:16:24.609Z,2.40
2023-02-24T22:21:30.082Z,2.73
2023-02-24T22:26:33.012Z,1.63
2023-02-24T22:31:38.192Z,2.40
2023-02-24T22:36:42.459Z,2.23
2023-02-24T22:41:46.859Z,2.73
2023-02-24T22:46:49.798Z,3.67
2023-02-24T22:51:53.924Z,1.30
2023-02-24T22:56:56.795Z,2.17
2023-02-24T23:01:59.794Z,1.23
2023-02-24T23:07:04.021Z,1.60
2023-02-24T23:12:07.352Z,1.33
2023-02-24T23:17:10.835Z,1.47
2023-02-24T23:22:15.192Z,1.27
2023-02-24T23:27:17.940Z,1.90
2023-02-24T23:32:21.233Z,1.87
2023-02-24T23:37:26.214Z,1.43
2023-02-24T23:42:29.130Z,1.13
2023-02-24T23:47:31.937Z,1.20
2023-02-24T23:52:36.487Z,3.03
2023-02-24T23:57:39.609Z,1.57
